createdAt,value
2023-02-26T00:01:40.913Z,79.28
2023-02-26T00:04:09.178Z,79.10
2023-02-26T00:06:39.348Z,79.39
2023-02-26T00:09:06.917Z,79.47
2023-02-26T00:11:34.750Z,78.60
2023-02-26T00:14:02.428Z,79.07
2023-02-26T00:16:33.021Z,78.96
2023-02-26T00:19:03.960Z,78.80
2023-02-26T00:21:32.091Z,79.11
2023-02-26T00:24:03.378Z,78.82
2023-02-26T00:26:32.203Z,78.80
2023-02-26T00:29:00.611Z,78.77
2023-02-26T00:31:28.540Z,78.54
2023-02-26T00:33:58.187Z,79.03
2023-02-26T00:36:53.308Z,78.75
2023-02-26T00:39:39.748Z,78.75
2023-02-26T00:42:07.755Z,78.53
2023-02-26T00:44:35.540Z,79.00
2023-02-26T00:47:40.036Z,79.26
2023-02-26T00:50:16.947Z,78.52
2023-02-26T00:52:44.473Z,78.49
2023-02-26T00:55:12.064Z,78.67
2023-02-26T00:57:40.146Z,78.84
2023-02-26T01:00:08.642Z,79.26
2023-02-26T01:02:37.400Z,79.08
2023-02-26T01:05:06.056Z,79.26
2023-02-26T01:08:10.248Z,79.64
2023-02-26T01:10:38.184Z,79.61
2023-02-26T01:13:06.083Z,79.52
2023-02-26T01:15:34.238Z,79.95
2023-02-26T01:18:42.203Z,80.70
2023-02-26T01:21:19.353Z,80.64
2023-02-26T01:23:51.447Z,80.50
2023-02-26T01:26:24.012Z,80.25
2023-02-26T01:28:52.874Z,80.32
2023-02-26T01:31:56.784Z,80.60
2023-02-26T01:34:46.991Z,80.61
2023-02-26T01:37:24.639Z,80.01
2023-02-26T01:40:20.065Z,80.28
2023-02-26T01:42:54.471Z,80.11
2023-02-26T01:45:31.582Z,79.91
2023-02-26T01:48:11.494Z,80.22
2023-02-26T01:50:39.651Z,79.51
2023-02-26T01:53:10.010Z,79.79
2023-02-26T01:55:37.781Z,80.39
2023-02-26T01:58:05.981Z,79.69
2023-02-26T02:00:33.721Z,79.67
2023-02-26T02:03:02.283Z,79.63
2023-02-26T02:05:43.956Z,80.16
2023-02-26T02:08:13.425Z,80.38
2023-02-26T02:10:44.289Z,80.43
2023-02-26T02:13:59.422Z,80.50
2023-02-26T02:16:40.706Z,80.46
2023-02-26T02:19:34.968Z,80.87
2023-02-26T02:22:34.710Z,80.81
2023-02-26T02:25:11.266Z,80.49
2023-02-26T02:28:03.963Z,81.03
2023-02-26T02:30:56.880Z,80.96
2023-02-26T02:33:32.430Z,80.35
2023-02-26T02:36:07.896Z,80.27
2023-02-26T02:38:43.646Z,80.31
2023-02-26T02:41:37.877Z,80.55
2023-02-26T02:44:12.846Z,80.61
2023-02-26T02:46:43.640Z,80.80
2023-02-26T02:49:34.275Z,80.52
2023-02-26T02:52:23.675Z,80.56
2023-02-26T02:55:12.394Z,80.62
2023-02-26T02:57:50.151Z,81.06
2023-02-26T03:00:20.150Z,80.26
2023-02-26T03:03:06.906Z,80.66
2023-02-26T03:05:34.562Z,80.03
2023-02-26T03:08:15.778Z,80.82
2023-02-26T03:10:47.598Z,80.60
2023-02-26T03:13:22.055Z,80.51
2023-02-26T03:16:25.564Z,80.69
2023-02-26T03:19:20.634Z,80.83
2023-02-26T03:21:48.209Z,80.45
2023-02-26T03:24:42.201Z,80.15
2023-02-26T03:27:33.926Z,80.42
2023-02-26T03:30:16.522Z,79.45
2023-02-26T03:33:10.560Z,79.63
2023-02-26T03:35:51.071Z,79.61
2023-02-26T03:38:38.293Z,79.70
2023-02-26T03:41:12.412Z,79.39
2023-02-26T03:43:55.555Z,79.52
2023-02-26T03:46:54.361Z,79.33
2023-02-26T03:49:35.549Z,79.48
2023-02-26T03:52:05.061Z,79.11
2023-02-26T03:55:03.705Z,79.30
2023-02-26T03:57:50.174Z,79.22
2023-02-26T04:00:44.492Z,79.00
2023-02-26T04:03:19.371Z,79.74
2023-02-26T04:05:50.977Z,79.77
2023-02-26T04:08:21.513Z,79.91
2023-02-26T04:11:04.597Z,80.06
2023-02-26T04:13:33.296Z,79.27
2023-02-26T04:16:02.898Z,79.92
2023-02-26T04:18:30.828Z,79.44
2023-02-26T04:20:58.426Z,79.32
2023-02-26T04:23:25.946Z,78.77
2023-02-26T04:25:53.502Z,79.00
2023-02-26T04:28:21.116Z,78.79
2023-02-26T04:30:49.285Z,78.30
2023-02-26T04:33:17.264Z,78.72
2023-02-26T04:35:45.250Z,78.92
2023-02-26T04:38:12.855Z,78.64
2023-02-26T04:40:43.546Z,77.87
2023-02-26T04:43:14.164Z,78.26
2023-02-26T04:45:50.725Z,77.86
2023-02-26T04:48:18.910Z,77.30
2023-02-26T04:50:47.595Z,77.35
2023-02-26T04:53:15.487Z,77.03
2023-02-26T04:55:43.709Z,77.04
2023-02-26T04:58:11.369Z,75.86
2023-02-26T05:00:39.159Z,76.15
2023-02-26T05:03:07.495Z,76.00
2023-02-26T05:05:35.751Z,76.34
2023-02-26T05:08:03.636Z,75.47
2023-02-26T05:10:31.411Z,75.38
2023-02-26T05:12:59.029Z,74.36
2023-02-26T05:15:26.726Z,74.17
2023-02-26T05:17:54.321Z,74.49
2023-02-26T05:20:22.394Z,74.70
2023-02-26T05:22:49.948Z,75.12
2023-02-26T05:25:17.897Z,74.16
2023-02-26T05:27:46.568Z,74.30
2023-02-26T05:30:16.084Z,74.76
2023-02-26T05:32:44.312Z,73.89
2023-02-26T05:35:12.327Z,74.27
2023-02-26T05:37:40.084Z,74.08
2023-02-26T05:40:12.074Z,74.32
2023-02-26T05:42:40.439Z,73.12
2023-02-26T05:45:09.105Z,72.20
2023-02-26T05:47:38.981Z,73.03
2023-02-26T05:50:09.252Z,73.12
2023-02-26T05:52:37.002Z,72.68
2023-02-26T05:55:05.261Z,72.68
2023-02-26T05:57:32.767Z,71.81
2023-02-26T06:00:00.421Z,71.70
2023-02-26T06:02:27.910Z,71.74
2023-02-26T06:04:55.806Z,71.17
2023-02-26T06:07:24.602Z,71.03
2023-02-26T06:09:52.284Z,71.15
2023-02-26T06:12:19.739Z,70.77
2023-02-26T06:14:47.255Z,70.31
2023-02-26T06:17:14.776Z,69.85
2023-02-26T06:19:42.274Z,70.21
2023-02-26T06:22:09.735Z,70.33
2023-02-26T06:24:37.202Z,69.37
2023-02-26T06:27:04.788Z,70.13
2023-02-26T06:29:32.702Z,70.26
2023-02-26T06:32:00.539Z,69.82
2023-02-26T06:34:28.028Z,68.87
2023-02-26T06:36:55.572Z,68.96
2023-02-26T06:39:23.004Z,69.13
2023-02-26T06:41:50.544Z,69.22
2023-02-26T06:44:18.118Z,69.38
2023-02-26T06:46:45.669Z,68.69
2023-02-26T06:49:15.479Z,69.02
2023-02-26T06:51:42.969Z,68.75
2023-02-26T06:54:10.694Z,69.25
2023-02-26T06:56:38.370Z,68.86
2023-02-26T06:59:05.962Z,68.94
2023-02-26T07:01:33.872Z,68.79
2023-02-26T07:04:01.368Z,68.62
2023-02-26T07:06:30.563Z,68.89
2023-02-26T07:08:58.852Z,68.43
2023-02-26T07:11:27.438Z,68.91
2023-02-26T07:13:55.338Z,68.41
2023-02-26T07:16:22.843Z,68.01
2023-02-26T07:18:50.564Z,68.60
2023-02-26T07:21:18.036Z,68.18
2023-02-26T07:23:45.702Z,67.84
2023-02-26T07:26:13.286Z,68.05
2023-02-26T07:28:40.765Z,67.58
2023-02-26T07:31:08.540Z,67.47
2023-02-26T07:33:36.142Z,66.68
2023-02-26T07:36:04.054Z,67.14
2023-02-26T07:38:32.641Z,67.20
2023-02-26T07:41:00.215Z,67.23
2023-02-26T07:43:29.017Z,67.50
2023-02-26T07:45:57.588Z,66.55
2023-02-26T07:48:25.073Z,66.60
2023-02-26T07:50:53.925Z,66.49
2023-02-26T07:53:24.315Z,65.79
2023-02-26T07:55:52.037Z,65.46
2023-02-26T07:58:19.574Z,64.96
2023-02-26T08:00:48.177Z,65.13
2023-02-26T08:03:18.102Z,64.85
2023-02-26T08:05:45.693Z,65.33
2023-02-26T08:08:13.285Z,64.95
2023-02-26T08:10:42.517Z,64.77
2023-02-26T08:13:10.489Z,64.22
2023-02-26T08:15:38.131Z,64.01
2023-02-26T08:18:05.739Z,64.76
2023-02-26T08:20:33.227Z,63.89
2023-02-26T08:23:00.691Z,63.09
2023-02-26T08:25:28.330Z,62.97
2023-02-26T08:27:58.709Z,61.73
2023-02-26T08:30:27.560Z,60.32
2023-02-26T08:32:55.955Z,57.53
2023-02-26T08:35:25.135Z,56.08
2023-02-26T08:37:52.901Z,55.97
2023-02-26T08:40:20.894Z,57.13
2023-02-26T08:42:48.559Z,57.13
2023-02-26T08:45:16.167Z,56.47
2023-02-26T08:47:55.808Z,53.90
2023-02-26T08:50:26.145Z,52.33
2023-02-26T08:52:53.748Z,51.94
2023-02-26T08:55:21.915Z,51.86
2023-02-26T08:57:49.532Z,52.20
2023-02-26T09:00:18.737Z,53.10
2023-02-26T09:02:46.831Z,53.19
2023-02-26T09:05:15.152Z,54.39
2023-02-26T09:07:43.582Z,54.99
2023-02-26T09:10:13.583Z,56.22
2023-02-26T09:12:42.673Z,56.81
2023-02-26T09:15:11.778Z,57.75
2023-02-26T09:17:39.586Z,57.91
2023-02-26T09:20:09.317Z,58.73
2023-02-26T09:22:37.430Z,59.26
2023-02-26T09:25:06.297Z,59.04
2023-02-26T09:27:35.769Z,58.93
2023-02-26T09:30:07.067Z,58.74
2023-02-26T09:32:34.846Z,59.33
2023-02-26T09:35:02.997Z,59.20
2023-02-26T09:37:31.278Z,59.07
2023-02-26T09:39:59.210Z,59.27
2023-02-26T09:42:53.371Z,58.42
2023-02-26T09:45:44.457Z,58.84
2023-02-26T09:48:17.800Z,59.13
2023-02-26T09:50:53.521Z,59.24
2023-02-26T09:53:28.166Z,59.34
2023-02-26T09:56:02.019Z,59.62
2023-02-26T09:58:35.623Z,59.08
2023-02-26T10:01:43.838Z,59.67
2023-02-26T10:04:45.232Z,60.17
2023-02-26T10:07:24.138Z,59.84
2023-02-26T10:10:15.604Z,59.85
2023-02-26T10:12:45.172Z,59.47
2023-02-26T10:15:18.533Z,59.13
2023-02-26T10:18:03.051Z,58.62
2023-02-26T10:20:47.236Z,59.07
2023-02-26T10:23:23.843Z,58.46
2023-02-26T10:25:56.778Z,58.12
2023-02-26T10:29:05.094Z,58.00
2023-02-26T10:31:47.316Z,58.32
2023-02-26T10:34:35.208Z,58.24
2023-02-26T10:37:24.580Z,58.25
2023-02-26T10:40:24.486Z,57.71
2023-02-26T10:43:12.411Z,58.09
2023-02-26T10:46:08.653Z,57.74
2023-02-26T10:48:45.135Z,57.24
2023-02-26T10:51:17.017Z,57.25
2023-02-26T10:53:50.595Z,56.46
2023-02-26T10:56:23.006Z,55.22
2023-02-26T10:58:52.523Z,55.09
2023-02-26T11:01:24.272Z,55.70
2023-02-26T11:04:03.470Z,56.13
2023-02-26T11:06:37.332Z,56.26
2023-02-26T11:09:14.461Z,56.09
2023-02-26T11:12:04.581Z,54.97
2023-02-26T11:14:35.036Z,55.78
2023-02-26T11:17:12.832Z,56.00
2023-02-26T11:19:48.805Z,55.69
2023-02-26T11:22:16.975Z,55.15
2023-02-26T11:24:50.688Z,54.95
2023-02-26T11:27:36.728Z,54.23
2023-02-26T11:30:18.712Z,54.58
2023-02-26T11:32:51.643Z,54.07
2023-02-26T11:35:23.334Z,53.90
2023-02-26T11:37:59.944Z,54.63
2023-02-26T11:40:45.914Z,52.29
2023-02-26T11:43:18.453Z,52.39
2023-02-26T11:45:59.256Z,51.87
2023-02-26T11:48:39.844Z,51.88
2023-02-26T11:51:09.188Z,51.48
2023-02-26T11:54:01.401Z,50.54
2023-02-26T11:56:44.172Z,50.91
2023-02-26T11:59:24.047Z,50.83
2023-02-26T12:01:53.837Z,51.33
2023-02-26T12:04:27.240Z,51.89
2023-02-26T12:06:56.511Z,51.67
2023-02-26T12:09:26.274Z,51.21
2023-02-26T12:12:31.642Z,52.14
2023-02-26T12:15:21.445Z,52.36
2023-02-26T12:18:26.402Z,53.44
2023-02-26T12:21:21.009Z,55.74
2023-02-26T12:24:09.702Z,56.36
2023-02-26T12:26:51.076Z,57.66
2023-02-26T12:30:01.429Z,57.79
2023-02-26T12:32:42.391Z,58.66
2023-02-26T12:35:18.989Z,58.47
2023-02-26T12:38:28.036Z,58.83
2023-02-26T12:41:32.440Z,60.26
2023-02-26T12:45:00.304Z,60.91
2023-02-26T12:47:42.324Z,60.70
2023-02-26T12:50:21.140Z,62.08
2023-02-26T12:52:58.908Z,62.23
2023-02-26T12:55:40.190Z,62.57
2023-02-26T12:58:14.712Z,61.91
2023-02-26T13:01:21.614Z,63.23
2023-02-26T13:03:57.141Z,62.47
2023-02-26T13:06:46.303Z,62.66
2023-02-26T13:09:16.607Z,61.75
2023-02-26T13:11:59.239Z,62.25
2023-02-26T13:14:42.185Z,61.77
2023-02-26T13:17:15.229Z,61.58
2023-02-26T13:20:00.806Z,61.16
2023-02-26T13:22:46.020Z,61.52
2023-02-26T13:25:55.981Z,61.81
2023-02-26T13:29:11.680Z,61.45
2023-02-26T13:31:45.981Z,60.93
2023-02-26T13:34:42.067Z,60.35
2023-02-26T13:37:32.646Z,59.55
2023-02-26T13:40:37.876Z,59.50
2023-02-26T13:43:17.490Z,58.76
2023-02-26T13:45:57.548Z,59.04
2023-02-26T13:48:39.297Z,59.53
2023-02-26T13:51:26.215Z,59.98
2023-02-26T13:54:15.032Z,60.75
2023-02-26T13:56:44.133Z,61.02
2023-02-26T13:59:17.238Z,61.06
2023-02-26T14:01:46.755Z,61.29
2023-02-26T14:04:22.360Z,60.75
2023-02-26T14:06:58.211Z,60.99
2023-02-26T14:09:28.723Z,60.51
2023-02-26T14:11:56.139Z,60.41
2023-02-26T14:17:36.739Z,56.81
2023-02-26T14:20:25.827Z,57.37
2023-02-26T14:23:21.039Z,56.14
2023-02-26T14:25:52.801Z,57.04
2023-02-26T14:28:26.948Z,56.48
2023-02-26T14:31:03.517Z,57.16
2023-02-26T14:33:40.920Z,57.44
2023-02-26T14:36:17.110Z,57.87
2023-02-26T14:38:45.613Z,58.37
2023-02-26T14:41:30.992Z,58.10
2023-02-26T14:44:14.089Z,57.65
2023-02-26T14:46:43.469Z,57.84
2023-02-26T14:49:19.168Z,56.49
2023-02-26T14:52:30.147Z,56.39
2023-02-26T14:55:08.265Z,56.96
2023-02-26T14:57:44.888Z,56.08
2023-02-26T15:00:30.393Z,56.06
2023-02-26T15:03:25.063Z,56.14
2023-02-26T15:06:07.629Z,55.93
2023-02-26T15:08:44.632Z,56.43
2023-02-26T15:11:45.609Z,56.53
2023-02-26T15:14:57.322Z,57.73
2023-02-26T15:17:55.118Z,58.70
2023-02-26T15:20:33.375Z,59.16
2023-02-26T15:23:47.102Z,59.60
2023-02-26T15:26:34.947Z,59.19
2023-02-26T15:29:06.401Z,59.49
2023-02-26T15:31:43.009Z,59.95
2023-02-26T15:34:16.008Z,60.35
2023-02-26T15:36:46.333Z,60.00
2023-02-26T15:39:17.558Z,59.68
2023-02-26T15:41:48.228Z,60.29
2023-02-26T15:44:27.424Z,60.55
2023-02-26T15:46:59.641Z,60.23
2023-02-26T15:49:30.744Z,60.91
2023-02-26T15:52:01.099Z,61.32
2023-02-26T15:54:35.664Z,62.57
2023-02-26T15:57:03.956Z,61.74
2023-02-26T15:59:33.197Z,62.22
2023-02-26T16:02:02.933Z,62.68
2023-02-26T16:04:30.909Z,62.07
2023-02-26T16:06:59.028Z,62.01
2023-02-26T16:09:30.997Z,62.33
2023-02-26T16:12:02.465Z,61.28
2023-02-26T16:14:34.634Z,60.73
2023-02-26T16:17:05.546Z,60.46
2023-02-26T16:19:41.806Z,60.27
2023-02-26T16:22:36.119Z,60.42
2023-02-26T16:25:18.177Z,61.43
2023-02-26T16:27:55.079Z,62.18
2023-02-26T16:30:27.330Z,62.33
2023-02-26T16:32:55.834Z,61.90
2023-02-26T16:35:24.648Z,62.69
2023-02-26T16:37:55.292Z,62.37
2023-02-26T16:40:33.221Z,62.31
2023-02-26T16:43:21.666Z,62.73
2023-02-26T16:45:55.102Z,63.05
2023-02-26T16:48:22.525Z,63.66
2023-02-26T16:51:04.170Z,63.53
2023-02-26T16:53:45.396Z,63.27
2023-02-26T16:56:18.346Z,62.80
2023-02-26T16:58:50.395Z,62.27
2023-02-26T17:01:20.641Z,61.49
2023-02-26T17:04:01.034Z,61.48
2023-02-26T17:06:31.445Z,61.46
2023-02-26T17:09:01.339Z,61.55
2023-02-26T17:11:33.331Z,61.17
2023-02-26T17:14:09.929Z,61.08
2023-02-26T17:16:37.763Z,60.81
2023-02-26T17:19:05.554Z,60.77
2023-02-26T17:21:33.283Z,61.01
2023-02-26T17:24:01.145Z,60.47
2023-02-26T17:26:29.590Z,60.76
2023-02-26T17:28:57.329Z,60.30
2023-02-26T17:31:25.533Z,60.55
2023-02-26T17:33:53.536Z,60.39
2023-02-26T17:36:21.427Z,60.43
2023-02-26T17:38:50.270Z,60.45
2023-02-26T17:41:18.947Z,60.28
2023-02-26T17:43:46.650Z,60.63
2023-02-26T17:46:14.760Z,60.76
2023-02-26T17:48:42.383Z,60.57
2023-02-26T17:51:11.610Z,60.42
2023-02-26T17:53:44.937Z,60.05
2023-02-26T17:56:31.739Z,60.19
2023-02-26T17:59:01.513Z,59.92
2023-02-26T18:01:30.567Z,59.63
2023-02-26T18:04:00.862Z,59.37
2023-02-26T18:06:31.195Z,59.40
2023-02-26T18:08:58.806Z,59.13
2023-02-26T18:11:29.086Z,59.00
2023-02-26T18:13:56.942Z,58.51
2023-02-26T18:16:33.335Z,58.05
2023-02-26T18:19:02.037Z,58.01
2023-02-26T18:21:30.087Z,58.08
2023-02-26T18:24:01.318Z,58.07
2023-02-26T18:26:32.796Z,58.45
2023-02-26T18:29:00.395Z,58.34
2023-02-26T18:31:35.017Z,57.85
2023-02-26T18:34:03.942Z,57.51
2023-02-26T18:36:36.154Z,56.88
2023-02-26T18:39:10.317Z,57.88
2023-02-26T18:41:38.043Z,57.64
2023-02-26T18:44:05.692Z,57.81
2023-02-26T18:46:35.689Z,57.88
2023-02-26T18:49:03.590Z,57.56
2023-02-26T18:51:31.273Z,57.53
2023-02-26T18:53:58.905Z,57.46
2023-02-26T18:56:26.790Z,57.55
2023-02-26T18:58:54.259Z,57.51
2023-02-26T19:01:22.670Z,57.70
2023-02-26T19:03:50.461Z,57.79
2023-02-26T19:06:18.555Z,57.72
2023-02-26T19:08:47.501Z,57.71
2023-02-26T19:11:15.198Z,57.88
2023-02-26T19:13:42.731Z,57.94
2023-02-26T19:16:10.727Z,57.57
2023-02-26T19:18:38.502Z,57.63
2023-02-26T19:21:06.318Z,57.95
2023-02-26T19:23:33.899Z,57.81
2023-02-26T19:26:02.606Z,58.26
2023-02-26T19:28:30.360Z,57.55
2023-02-26T19:30:58.728Z,57.68
2023-02-26T19:33:26.463Z,57.69
2023-02-26T19:35:54.235Z,57.66
2023-02-26T19:38:23.673Z,56.87
2023-02-26T19:40:51.544Z,57.04
2023-02-26T19:43:19.210Z,57.58
2023-02-26T19:45:46.749Z,57.59
2023-02-26T19:48:16.951Z,57.60
2023-02-26T19:50:45.257Z,57.88
2023-02-26T19:53:13.095Z,57.87
2023-02-26T19:55:40.811Z,57.94
2023-02-26T19:58:08.399Z,57.99
2023-02-26T20:00:37.051Z,58.22
2023-02-26T20:03:04.801Z,57.80
2023-02-26T20:05:32.361Z,58.01
2023-02-26T20:07:59.949Z,57.74
2023-02-26T20:10:32.681Z,57.27
2023-02-26T20:13:02.342Z,57.56
2023-02-26T20:15:29.956Z,58.22
2023-02-26T20:17:57.407Z,57.95
2023-02-26T20:20:25.102Z,57.97
2023-02-26T20:22:53.066Z,58.00
2023-02-26T20:25:20.631Z,58.03
2023-02-26T20:27:48.212Z,57.64
2023-02-26T20:30:15.924Z,57.74
2023-02-26T20:32:43.734Z,57.83
2023-02-26T20:35:11.366Z,57.99
2023-02-26T20:37:41.272Z,57.72
2023-02-26T20:40:09.570Z,57.61
2023-02-26T20:42:38.358Z,57.61
2023-02-26T20:45:08.039Z,57.53
2023-02-26T20:47:35.651Z,57.40
2023-02-26T20:50:03.243Z,57.84
2023-02-26T20:52:30.761Z,58.09
2023-02-26T20:54:58.361Z,57.55
2023-02-26T20:57:25.895Z,57.68
2023-02-26T20:59:53.494Z,57.86
2023-02-26T21:02:21.334Z,58.33
2023-02-26T21:04:48.974Z,58.23
2023-02-26T21:07:22.260Z,58.22
2023-02-26T21:09:51.915Z,57.79
2023-02-26T21:12:19.851Z,57.82
2023-02-26T21:14:47.882Z,57.77
2023-02-26T21:17:15.415Z,58.20
2023-02-26T21:19:42.893Z,58.11
2023-02-26T21:22:11.021Z,58.39
2023-02-26T21:24:38.606Z,58.56
2023-02-26T21:27:06.333Z,58.21
2023-02-26T21:29:34.145Z,58.21
2023-02-26T21:32:03.545Z,58.34
2023-02-26T21:34:34.300Z,58.57
2023-02-26T21:37:09.204Z,57.99
2023-02-26T21:39:41.096Z,58.46
2023-02-26T21:42:12.616Z,58.32
2023-02-26T21:44:40.452Z,58.46
2023-02-26T21:47:07.952Z,58.48
2023-02-26T21:49:35.481Z,58.43
2023-02-26T21:52:07.807Z,58.24
2023-02-26T21:54:35.607Z,58.58
2023-02-26T21:57:03.411Z,58.48
2023-02-26T21:59:31.001Z,58.50
2023-02-26T22:01:58.670Z,58.48
2023-02-26T22:04:26.366Z,58.39
2023-02-26T22:06:54.323Z,58.47
2023-02-26T22:09:23.033Z,58.20
2023-02-26T22:11:50.707Z,58.74
2023-02-26T22:14:18.457Z,58.74
2023-02-26T22:16:46.223Z,58.82
2023-02-26T22:19:13.750Z,58.65
2023-02-26T22:21:41.485Z,58.36
2023-02-26T22:24:09.709Z,58.40
2023-02-26T22:26:37.477Z,58.17
2023-02-26T22:29:05.206Z,58.34
2023-02-26T22:31:33.564Z,58.38
2023-02-26T22:34:01.393Z,57.72
2023-02-26T22:36:31.420Z,58.30
2023-02-26T22:38:59.180Z,57.99
2023-02-26T22:41:27.139Z,58.32
2023-02-26T22:43:55.155Z,58.60
2023-02-26T22:46:24.500Z,58.38
2023-02-26T22:48:52.077Z,58.90
2023-02-26T22:51:19.668Z,58.93
2023-02-26T22:53:47.180Z,58.71
2023-02-26T22:56:15.173Z,58.68
2023-02-26T22:58:42.682Z,58.75
2023-02-26T23:01:10.472Z,58.75
2023-02-26T23:03:38.072Z,59.09
2023-02-26T23:06:06.289Z,59.08
2023-02-26T23:08:34.210Z,58.97
2023-02-26T23:11:03.721Z,58.82
2023-02-26T23:13:34.424Z,59.09
2023-02-26T23:16:04.204Z,59.37
2023-02-26T23:18:33.235Z,59.25
2023-02-26T23:21:01.026Z,59.46
2023-02-26T23:23:29.180Z,59.66
2023-02-26T23:25:56.850Z,59.53
2023-02-26T23:28:26.923Z,59.52
2023-02-26T23:30:54.521Z,59.80
2023-02-26T23:33:22.311Z,59.67
2023-02-26T23:35:49.855Z,59.40
2023-02-26T23:38:17.429Z,59.52
2023-02-26T23:40:44.958Z,59.22
2023-02-26T23:43:12.689Z,59.53
2023-02-26T23:45:40.242Z,59.45
2023-02-26T23:48:08.251Z,59.39
2023-02-26T23:50:35.851Z,59.41
2023-02-26T23:53:03.409Z,59.53
2023-02-26T23:55:30.895Z,59.66
2023-02-26T23:57:58.435Z,59.24
